Time;durP1;ratioP1;P1;durP2;ratioP2;P2;SDS_P1;SDS_P2;PMS_P1;PMS_P2;Temp;Humidity;BMP_temperature;BMP_pressure;BME280_temperature;BME280_humidity;BME280_pressure;Samples;Min_cycle;Max_cycle;Signal;HPM_P1;HPM_P2
2021/07/28 00:00:21;;;;;;;9.30;7.28;;;;;;;;;;5019942;28;20034;-73
2021/07/28 00:02:47;;;;;;;7.55;6.40;;;;;;;;;;5021502;28;20068;-73
2021/07/28 00:05:13;;;;;;;10.40;7.47;;;;;;;;;;5020772;28;20026;-73
2021/07/28 00:07:39;;;;;;;11.10;7.35;;;;;;;;;;5021349;28;20112;-73
2021/07/28 00:10:06;;;;;;;13.02;7.28;;;;;;;;;;5019830;28;20638;-73
2021/07/28 00:12:32;;;;;;;9.85;6.90;;;;;;;;;;5020765;28;20030;-73
2021/07/28 00:14:59;;;;;;;7.57;6.80;;;;;;;;;;5023930;28;20028;-73
2021/07/28 00:17:27;;;;;;;8.38;7.13;;;;;;;;;;5022859;28;20037;-73
2021/07/28 00:20:03;;;;;;;8.90;7.55;;;;;;;;;;5016922;28;20069;-73
2021/07/28 00:25:19;;;;;;;9.85;8.02;;;;;;;;;;5019936;28;20064;-73
2021/07/28 00:27:45;;;;;;;10.60;7.47;;;;;;;;;;5022254;28;20033;-73
2021/07/28 00:30:12;;;;;;;8.10;6.93;;;;;;;;;;5021943;28;20469;-73
2021/07/28 00:32:38;;;;;;;8.27;7.47;;;;;;;;;;5024520;28;20056;-73
2021/07/28 00:35:04;;;;;;;9.38;7.57;;;;;;;;;;5021459;28;20120;-72
2021/07/28 00:37:30;;;;;;;11.55;8.23;;;;;;;;;;5024857;28;20026;-73
2021/07/28 00:39:57;;;;;;;8.90;8.00;;;;;;;;;;5025857;28;20026;-73
2021/07/28 00:42:23;;;;;;;8.90;7.90;;;;;;;;;;5027010;28;20207;-72
2021/07/28 00:44:49;;;;;;;7.80;7.00;;;;;;;;;;5028424;28;20559;-73
2021/07/28 00:47:15;;;;;;;11.73;7.95;;;;;;;;;;5028994;28;20396;-73
2021/07/28 00:49:42;;;;;;;11.05;8.20;;;;;;;;;;5030674;28;20026;-73
2021/07/28 00:52:08;;;;;;;8.93;7.95;;;;;;;;;;5017830;28;20546;-72
2021/07/28 00:54:35;;;;;;;9.70;8.30;;;;;;;;;;5022421;28;20032;-72
2021/07/28 00:57:01;;;;;;;10.27;7.97;;;;;;;;;;5026633;28;20057;-73
2021/07/28 00:59:27;;;;;;;8.77;7.68;;;;;;;;;;5025337;28;20030;-73
2021/07/28 01:01:53;;;;;;;8.40;7.53;;;;;;;;;;5023613;28;20100;-72
2021/07/28 01:04:19;;;;;;;9.07;7.82;;;;;;;;;;5028201;28;20618;-72
2021/07/28 01:06:46;;;;;;;13.57;7.95;;;;;;;;;;5025243;28;20040;-73
2021/07/28 01:09:12;;;;;;;11.40;7.72;;;;;;;;;;5029640;28;20456;-72
2021/07/28 01:11:38;;;;;;;10.82;7.82;;;;;;;;;;5028959;28;20029;-73
2021/07/28 01:14:05;;;;;;;11.60;7.95;;;;;;;;;;5028671;28;20025;-73
2021/07/28 01:16:34;;;;;;;8.95;8.05;;;;;;;;;;5023209;28;20152;-73
2021/07/28 01:19:01;;;;;;;11.77;8.25;;;;;;;;;;5023510;28;20100;-73
2021/07/28 01:21:28;;;;;;;13.02;8.25;;;;;;;;;;5024794;28;20025;-73
2021/07/28 01:23:54;;;;;;;13.55;8.00;;;;;;;;;;5022508;28;20033;-73
2021/07/28 01:26:21;;;;;;;11.40;8.57;;;;;;;;;;5024959;28;20033;-72
2021/07/28 01:28:48;;;;;;;12.20;8.75;;;;;;;;;;5026412;28;20025;-73
2021/07/28 01:31:15;;;;;;;9.00;7.82;;;;;;;;;;5020924;28;20046;-73
2021/07/28 01:33:45;;;;;;;10.43;8.35;;;;;;;;;;5019346;28;20108;-73
2021/07/28 01:36:14;;;;;;;10.05;7.90;;;;;;;;;;5024962;28;20030;-73
2021/07/28 01:38:40;;;;;;;9.35;8.05;;;;;;;;;;5022569;28;20025;-72
2021/07/28 01:41:07;;;;;;;10.70;8.18;;;;;;;;;;5025870;28;20547;-73
2021/07/28 01:43:34;;;;;;;8.80;7.90;;;;;;;;;;5024072;28;20234;-73
2021/07/28 01:46:01;;;;;;;9.95;8.45;;;;;;;;;;5018361;28;20373;-73
2021/07/28 01:48:27;;;;;;;9.55;8.48;;;;;;;;;;5022822;28;20104;-73
2021/07/28 01:50:57;;;;;;;10.68;8.25;;;;;;;;;;5024642;28;20840;-73
2021/07/28 01:53:23;;;;;;;10.18;7.93;;;;;;;;;;5026540;28;20033;-73
2021/07/28 01:55:50;;;;;;;12.30;8.48;;;;;;;;;;5017268;28;20436;-73
2021/07/28 01:58:18;;;;;;;11.13;8.27;;;;;;;;;;5023492;28;20038;-72
2021/07/28 02:00:44;;;;;;;8.88;7.97;;;;;;;;;;5019032;28;20029;-72
2021/07/28 02:03:10;;;;;;;9.88;8.70;;;;;;;;;;5022263;28;20033;-73
2021/07/28 02:05:37;;;;;;;14.02;8.88;;;;;;;;;;5023185;28;20032;-73
2021/07/28 02:08:07;;;;;;;10.63;8.40;;;;;;;;;;5025764;28;20398;-73
2021/07/28 02:10:38;;;;;;;9.02;8.00;;;;;;;;;;5024268;28;20453;-72
2021/07/28 02:13:04;;;;;;;9.67;8.67;;;;;;;;;;5019925;28;20099;-72
2021/07/28 02:15:32;;;;;;;10.23;8.00;;;;;;;;;;5023638;28;20116;-73
2021/07/28 02:17:58;;;;;;;9.65;8.75;;;;;;;;;;5025617;28;20540;-72
2021/07/28 02:20:25;;;;;;;10.10;8.57;;;;;;;;;;5024016;28;20141;-73
2021/07/28 02:22:51;;;;;;;9.63;8.38;;;;;;;;;;5025598;28;20026;-73
2021/07/28 02:25:18;;;;;;;12.52;9.20;;;;;;;;;;5019613;28;20084;-73
2021/07/28 02:27:44;;;;;;;9.63;7.75;;;;;;;;;;5025569;28;20034;-72
2021/07/28 02:30:11;;;;;;;9.48;8.02;;;;;;;;;;5021788;28;20086;-72
2021/07/28 02:32:38;;;;;;;11.25;8.57;;;;;;;;;;5015192;28;20501;-72
2021/07/28 02:35:05;;;;;;;8.57;7.63;;;;;;;;;;5026377;28;20025;-72
2021/07/28 02:37:31;;;;;;;9.80;7.80;;;;;;;;;;5020155;28;20030;-73
2021/07/28 02:39:58;;;;;;;10.20;7.63;;;;;;;;;;5022980;28;20052;-72
2021/07/28 02:42:24;;;;;;;11.80;7.80;;;;;;;;;;5017571;28;20749;-72
2021/07/28 02:44:50;;;;;;;8.45;7.20;;;;;;;;;;5020747;28;20479;-73
2021/07/28 02:47:16;;;;;;;10.50;8.55;;;;;;;;;;5024784;28;20063;-73
2021/07/28 02:49:42;;;;;;;9.73;7.65;;;;;;;;;;5021113;28;20030;-73
2021/07/28 02:52:08;;;;;;;10.20;8.35;;;;;;;;;;5023571;28;20759;-72
2021/07/28 02:54:35;;;;;;;8.95;8.05;;;;;;;;;;5018786;28;20470;-72
2021/07/28 02:57:01;;;;;;;9.07;8.18;;;;;;;;;;5016103;28;20029;-72
2021/07/28 02:59:27;;;;;;;8.95;8.05;;;;;;;;;;5021628;28;20017;-73
2021/07/28 03:01:53;;;;;;;8.48;7.72;;;;;;;;;;5023359;28;20021;-73
2021/07/28 03:04:20;;;;;;;9.32;8.40;;;;;;;;;;5016620;28;20025;-73
2021/07/28 03:06:46;;;;;;;9.23;8.25;;;;;;;;;;5018919;28;20029;-73
2021/07/28 03:09:12;;;;;;;9.15;8.02;;;;;;;;;;5020263;28;20604;-73
2021/07/28 03:11:39;;;;;;;9.60;8.13;;;;;;;;;;5022442;28;20045;-73
2021/07/28 03:14:05;;;;;;;9.13;7.95;;;;;;;;;;5020698;28;20037;-73
2021/07/28 03:16:32;;;;;;;10.60;8.95;;;;;;;;;;5022571;28;20055;-73
2021/07/28 03:18:58;;;;;;;9.63;8.43;;;;;;;;;;5021314;28;20100;-72
2021/07/28 03:21:24;;;;;;;9.35;8.40;;;;;;;;;;5020716;28;20048;-73
2021/07/28 03:23:50;;;;;;;10.30;8.73;;;;;;;;;;5021987;28;20493;-73
2021/07/28 03:26:16;;;;;;;9.68;8.68;;;;;;;;;;5021904;28;20343;-73
2021/07/28 03:28:43;;;;;;;8.63;7.82;;;;;;;;;;5021131;28;20026;-73
2021/07/28 03:31:09;;;;;;;10.93;8.27;;;;;;;;;;5020341;28;20029;-72
2021/07/28 03:33:35;;;;;;;10.38;8.90;;;;;;;;;;5022084;28;20083;-73
2021/07/28 03:36:01;;;;;;;9.48;8.57;;;;;;;;;;5021836;28;20020;-72
2021/07/28 03:38:28;;;;;;;9.00;8.10;;;;;;;;;;5020379;28;20509;-73
2021/07/28 03:40:54;;;;;;;10.90;8.43;;;;;;;;;;5022155;28;20036;-72
2021/07/28 03:43:20;;;;;;;11.02;8.70;;;;;;;;;;5019926;28;20033;-73
2021/07/28 03:45:46;;;;;;;8.93;8.02;;;;;;;;;;5020990;28;20039;-73
2021/07/28 03:48:12;;;;;;;12.20;8.88;;;;;;;;;;5021532;28;20107;-72
2021/07/28 03:50:38;;;;;;;10.18;8.50;;;;;;;;;;5020483;28;20049;-72
2021/07/28 03:53:05;;;;;;;11.85;8.90;;;;;;;;;;5021823;28;20493;-73
2021/07/28 03:55:31;;;;;;;11.10;8.40;;;;;;;;;;5021528;28;20021;-73
2021/07/28 03:57:57;;;;;;;10.73;8.00;;;;;;;;;;5022005;28;20047;-73
2021/07/28 04:00:23;;;;;;;13.18;8.25;;;;;;;;;;5021926;28;20047;-73
2021/07/28 04:02:50;;;;;;;10.27;7.93;;;;;;;;;;5019324;28;20056;-73
2021/07/28 04:05:16;;;;;;;9.65;8.00;;;;;;;;;;5020615;28;20029;-73
2021/07/28 04:07:43;;;;;;;9.90;8.40;;;;;;;;;;5020178;28;20087;-73
2021/07/28 04:10:09;;;;;;;10.07;8.40;;;;;;;;;;5021516;28;20518;-73
2021/07/28 04:12:36;;;;;;;10.95;7.93;;;;;;;;;;5021079;28;20068;-73
2021/07/28 04:15:02;;;;;;;12.13;7.97;;;;;;;;;;5019839;28;20039;-73
2021/07/28 04:17:28;;;;;;;10.05;8.70;;;;;;;;;;5021676;28;20049;-72
2021/07/28 04:19:54;;;;;;;9.38;8.38;;;;;;;;;;5021492;28;20049;-73
2021/07/28 04:22:21;;;;;;;9.40;8.25;;;;;;;;;;5021160;28;20021;-73
2021/07/28 04:24:47;;;;;;;9.23;8.30;;;;;;;;;;5021404;28;20022;-73
2021/07/28 04:27:14;;;;;;;9.75;8.40;;;;;;;;;;5021156;28;20509;-72
2021/07/28 04:29:40;;;;;;;12.68;8.73;;;;;;;;;;5019887;28;20105;-73
2021/07/28 04:32:07;;;;;;;9.38;8.35;;;;;;;;;;5020985;28;20037;-73
2021/07/28 04:34:35;;;;;;;11.95;9.18;;;;;;;;;;5021483;28;20014;-73
2021/07/28 04:37:02;;;;;;;10.85;8.70;;;;;;;;;;5021953;28;20094;-72
2021/07/28 04:39:28;;;;;;;11.93;9.00;;;;;;;;;;5021230;28;20043;-72
2021/07/28 04:41:54;;;;;;;11.63;8.52;;;;;;;;;;5019672;28;20103;-73
2021/07/28 04:44:20;;;;;;;10.85;8.48;;;;;;;;;;5019708;28;20760;-72
2021/07/28 04:46:46;;;;;;;9.88;8.80;;;;;;;;;;5021179;28;20022;-73
2021/07/28 04:49:12;;;;;;;12.57;8.90;;;;;;;;;;5017408;28;20070;-73
2021/07/28 04:51:39;;;;;;;9.50;8.60;;;;;;;;;;5021370;28;20049;-73
2021/07/28 04:54:05;;;;;;;10.02;9.02;;;;;;;;;;5019562;28;20037;-73
2021/07/28 04:56:31;;;;;;;10.55;8.68;;;;;;;;;;5020977;28;20025;-73
2021/07/28 04:58:57;;;;;;;10.27;9.27;;;;;;;;;;5020772;28;20051;-73
2021/07/28 05:01:23;;;;;;;13.45;9.35;;;;;;;;;;5020711;28;20079;-72
2021/07/28 05:03:49;;;;;;;14.18;9.45;;;;;;;;;;5020640;28;20356;-73
2021/07/28 05:06:15;;;;;;;11.07;9.23;;;;;;;;;;5019903;28;20678;-73
2021/07/28 05:08:42;;;;;;;10.82;8.95;;;;;;;;;;5020724;28;20029;-73
2021/07/28 05:11:08;;;;;;;11.45;9.10;;;;;;;;;;5020856;28;20025;-72
2021/07/28 05:13:34;;;;;;;11.20;9.65;;;;;;;;;;5020661;28;20048;-73
2021/07/28 05:16:00;;;;;;;12.07;9.40;;;;;;;;;;5019446;28;20032;-73
2021/07/28 05:18:26;;;;;;;11.73;8.50;;;;;;;;;;5021131;28;20040;-72
2021/07/28 05:20:53;;;;;;;15.38;9.85;;;;;;;;;;5022906;28;20131;-72
2021/07/28 05:23:19;;;;;;;20.55;10.32;;;;;;;;;;5023852;28;20106;-73
2021/07/28 05:25:45;;;;;;;14.52;9.82;;;;;;;;;;5022673;28;20041;-72
2021/07/28 05:28:11;;;;;;;12.85;9.00;;;;;;;;;;5024255;28;20047;-73
2021/07/28 05:30:38;;;;;;;11.90;8.50;;;;;;;;;;5024078;28;20030;-73
2021/07/28 05:33:04;;;;;;;12.25;9.27;;;;;;;;;;5021651;28;20045;-73
2021/07/28 05:35:30;;;;;;;10.07;9.07;;;;;;;;;;5022434;28;20021;-73
2021/07/28 05:38:00;;;;;;;10.68;8.75;;;;;;;;;;5023768;28;20029;-73
2021/07/28 05:40:26;;;;;;;12.75;9.68;;;;;;;;;;5024202;28;20064;-72
2021/07/28 05:42:52;;;;;;;11.27;9.65;;;;;;;;;;5024041;28;20095;-73
2021/07/28 05:45:19;;;;;;;13.75;9.77;;;;;;;;;;5021549;28;20631;-72
2021/07/28 05:47:45;;;;;;;24.45;11.23;;;;;;;;;;5024636;28;20057;-73
2021/07/28 05:50:14;;;;;;;12.00;9.60;;;;;;;;;;5023561;28;20087;-72
2021/07/28 05:52:41;;;;;;;11.38;10.20;;;;;;;;;;5016352;28;20037;-72
2021/07/28 05:55:07;;;;;;;13.70;10.70;;;;;;;;;;5023976;28;20492;-73
2021/07/28 05:57:34;;;;;;;10.98;9.30;;;;;;;;;;5022103;28;20076;-73
2021/07/28 06:00:00;;;;;;;12.32;9.38;;;;;;;;;;5023785;28;20032;-73
2021/07/28 06:02:26;;;;;;;13.18;9.38;;;;;;;;;;5013493;28;20037;-73
2021/07/28 06:04:52;;;;;;;11.75;10.10;;;;;;;;;;5023528;28;20236;-73
2021/07/28 06:07:18;;;;;;;10.63;9.52;;;;;;;;;;5020942;28;20026;-73
2021/07/28 06:09:44;;;;;;;13.32;9.23;;;;;;;;;;5023539;28;20025;-73
2021/07/28 06:12:10;;;;;;;10.90;9.25;;;;;;;;;;5023388;28;20030;-73
2021/07/28 06:14:37;;;;;;;12.00;9.55;;;;;;;;;;5023188;28;20030;-73
2021/07/28 06:17:05;;;;;;;11.38;9.93;;;;;;;;;;5022595;28;20021;-73
2021/07/28 06:19:31;;;;;;;10.52;9.48;;;;;;;;;;5023121;28;20402;-73
2021/07/28 06:21:57;;;;;;;12.52;9.48;;;;;;;;;;5023282;28;20420;-72
2021/07/28 06:24:23;;;;;;;10.65;9.52;;;;;;;;;;5023059;28;20550;-72
2021/07/28 06:26:49;;;;;;;11.57;10.00;;;;;;;;;;5024156;28;20512;-73
2021/07/28 06:29:16;;;;;;;10.85;9.60;;;;;;;;;;5021344;28;20048;-72
2021/07/28 06:31:42;;;;;;;14.35;9.68;;;;;;;;;;5022329;28;20075;-72
2021/07/28 06:34:08;;;;;;;14.27;10.20;;;;;;;;;;5022772;28;20075;-72
2021/07/28 06:36:36;;;;;;;15.38;10.10;;;;;;;;;;5023173;28;20029;-72
2021/07/28 06:39:02;;;;;;;10.52;9.40;;;;;;;;;;5023199;28;20103;-72
2021/07/28 06:41:29;;;;;;;10.98;9.88;;;;;;;;;;5022957;28;20018;-72
2021/07/28 06:43:55;;;;;;;14.98;9.70;;;;;;;;;;5020822;28;20022;-72
2021/07/28 06:46:21;;;;;;;13.70;10.27;;;;;;;;;;5020611;28;20091;-72
2021/07/28 06:48:47;;;;;;;23.05;12.10;;;;;;;;;;5022440;28;20030;-72
2021/07/28 06:51:14;;;;;;;11.27;10.02;;;;;;;;;;5021224;28;20032;-72
2021/07/28 06:53:40;;;;;;;12.35;9.93;;;;;;;;;;5022079;28;20021;-72
2021/07/28 06:56:06;;;;;;;13.90;9.63;;;;;;;;;;5022588;28;20053;-73
2021/07/28 06:58:32;;;;;;;12.73;9.48;;;;;;;;;;5021462;28;20025;-73
2021/07/28 07:01:00;;;;;;;11.80;8.95;;;;;;;;;;5021249;28;20056;-73
2021/07/28 07:03:26;;;;;;;11.20;8.90;;;;;;;;;;5022766;28;20119;-73
2021/07/28 07:05:52;;;;;;;9.95;8.65;;;;;;;;;;5023138;28;20482;-73
2021/07/28 07:08:18;;;;;;;12.50;8.70;;;;;;;;;;5022838;28;20558;-73
2021/07/28 07:10:44;;;;;;;17.20;9.80;;;;;;;;;;5020739;28;20496;-73
2021/07/28 07:13:10;;;;;;;11.05;9.07;;;;;;;;;;5022825;28;20034;-72
2021/07/28 07:15:36;;;;;;;10.13;8.85;;;;;;;;;;5022150;28;20025;-73
2021/07/28 07:18:03;;;;;;;16.50;9.25;;;;;;;;;;5022608;28;20044;-73
2021/07/28 07:20:29;;;;;;;8.75;7.82;;;;;;;;;;5020838;28;20102;-72
2021/07/28 07:22:55;;;;;;;12.35;9.50;;;;;;;;;;5022146;28;20043;-73
2021/07/28 07:25:21;;;;;;;11.07;8.85;;;;;;;;;;5021718;28;20049;-73
2021/07/28 07:27:47;;;;;;;9.45;8.55;;;;;;;;;;5022214;28;20130;-73
2021/07/28 07:30:13;;;;;;;9.98;8.45;;;;;;;;;;5021760;28;20613;-73
2021/07/28 07:32:40;;;;;;;12.07;8.95;;;;;;;;;;5017871;28;20932;-72
2021/07/28 07:35:06;;;;;;;11.57;9.77;;;;;;;;;;5020462;28;20245;-72
2021/07/28 07:37:33;;;;;;;10.85;9.43;;;;;;;;;;5020997;28;20030;-72
2021/07/28 07:39:59;;;;;;;11.50;8.60;;;;;;;;;;5020478;28;20223;-72
2021/07/28 07:42:25;;;;;;;9.85;8.82;;;;;;;;;;5019616;28;20033;-72
2021/07/28 07:44:56;;;;;;;11.13;8.98;;;;;;;;;;5018583;28;20072;-72
2021/07/28 07:47:22;;;;;;;10.63;9.57;;;;;;;;;;5021611;28;20068;-72
2021/07/28 07:49:48;;;;;;;10.90;8.90;;;;;;;;;;5020972;28;20069;-72
2021/07/28 07:52:14;;;;;;;12.05;8.43;;;;;;;;;;5022777;28;20041;-71
2021/07/28 07:54:40;;;;;;;11.07;8.70;;;;;;;;;;5020823;28;20086;-73
2021/07/28 07:57:06;;;;;;;12.18;9.20;;;;;;;;;;5022146;28;20026;-74
2021/07/28 07:59:32;;;;;;;8.73;7.85;;;;;;;;;;5021875;28;20324;-75
2021/07/28 08:01:59;;;;;;;12.63;8.95;;;;;;;;;;5021662;28;20117;-76
2021/07/28 08:04:25;;;;;;;9.25;8.35;;;;;;;;;;5020408;28;20033;-74
2021/07/28 08:06:51;;;;;;;9.20;8.30;;;;;;;;;;5021645;28;20036;-74
2021/07/28 08:09:17;;;;;;;9.50;7.82;;;;;;;;;;5021906;28;20026;-73
2021/07/28 08:11:43;;;;;;;9.70;8.73;;;;;;;;;;5022036;28;20160;-74
2021/07/28 08:14:09;;;;;;;9.20;8.30;;;;;;;;;;5021599;28;20105;-74
2021/07/28 08:16:35;;;;;;;10.57;8.45;;;;;;;;;;5020622;28;20742;-75
2021/07/28 08:19:02;;;;;;;8.80;8.00;;;;;;;;;;5019902;28;20474;-74
2021/07/28 08:21:28;;;;;;;8.95;8.00;;;;;;;;;;5021695;28;20048;-74
2021/07/28 08:23:54;;;;;;;8.75;7.40;;;;;;;;;;5021586;28;20117;-74
2021/07/28 08:26:20;;;;;;;8.63;7.82;;;;;;;;;;5022227;28;20033;-75
2021/07/28 08:28:46;;;;;;;11.45;8.75;;;;;;;;;;5020259;28;20042;-73
2021/07/28 08:31:12;;;;;;;9.45;7.80;;;;;;;;;;5021741;28;20154;-73
2021/07/28 08:33:38;;;;;;;9.43;8.02;;;;;;;;;;5021988;28;20067;-74
2021/07/28 08:36:05;;;;;;;9.35;8.23;;;;;;;;;;5020159;28;20017;-75
2021/07/28 08:38:31;;;;;;;9.45;8.48;;;;;;;;;;5021743;28;20055;-74
2021/07/28 08:41:02;;;;;;;9.18;8.27;;;;;;;;;;5022303;28;20029;-73
2021/07/28 08:43:32;;;;;;;9.88;8.75;;;;;;;;;;5021365;28;20029;-73
2021/07/28 08:46:00;;;;;;;10.57;9.47;;;;;;;;;;5021401;28;20034;-75
2021/07/28 08:48:29;;;;;;;12.25;9.63;;;;;;;;;;5019979;28;20497;-73
2021/07/28 08:50:56;;;;;;;18.85;9.70;;;;;;;;;;5021401;28;20761;-73
2021/07/28 08:53:22;;;;;;;9.90;8.50;;;;;;;;;;5021223;28;20061;-73
2021/07/28 08:55:48;;;;;;;12.63;8.73;;;;;;;;;;5022255;28;20738;-75
2021/07/28 08:58:15;;;;;;;10.35;8.60;;;;;;;;;;5025078;28;20543;-74
2021/07/28 09:00:45;;;;;;;10.93;8.50;;;;;;;;;;5028069;28;20021;-75
2021/07/28 09:03:12;;;;;;;10.23;8.48;;;;;;;;;;5031425;28;20026;-74
2021/07/28 09:05:43;;;;;;;9.10;8.30;;;;;;;;;;5023783;28;20045;-75
2021/07/28 09:08:24;;;;;;;8.77;7.97;;;;;;;;;;5025384;28;20637;-74
2021/07/28 09:11:11;;;;;;;9.60;8.60;;;;;;;;;;5025031;28;20018;-75
2021/07/28 09:13:37;;;;;;;10.30;9.30;;;;;;;;;;5025123;28;20037;-75
2021/07/28 09:16:05;;;;;;;11.77;9.70;;;;;;;;;;5025184;28;20083;-74
2021/07/28 09:18:34;;;;;;;10.75;8.95;;;;;;;;;;5023452;28;20033;-74
2021/07/28 09:21:01;;;;;;;11.77;10.18;;;;;;;;;;5024716;28;20049;-74
2021/07/28 09:23:40;;;;;;;9.18;8.25;;;;;;;;;;5025287;28;20112;-75
2021/07/28 09:26:25;;;;;;;11.60;9.55;;;;;;;;;;5024882;28;20022;-75
2021/07/28 09:29:12;;;;;;;11.02;9.82;;;;;;;;;;5023595;28;20040;-74
2021/07/28 09:31:42;;;;;;;11.07;9.98;;;;;;;;;;5024189;28;20560;-75
2021/07/28 09:34:26;;;;;;;10.73;9.73;;;;;;;;;;5024851;28;20029;-75
2021/07/28 09:36:52;;;;;;;11.73;9.65;;;;;;;;;;5024814;28;20259;-75
2021/07/28 09:39:29;;;;;;;10.70;9.60;;;;;;;;;;5023262;28;20091;-74
2021/07/28 09:41:56;;;;;;;10.80;9.80;;;;;;;;;;5024366;28;20467;-74
2021/07/28 09:44:25;;;;;;;11.15;9.90;;;;;;;;;;5024751;28;20025;-75
2021/07/28 09:47:02;;;;;;;10.13;9.02;;;;;;;;;;5022932;28;20240;-76
2021/07/28 09:49:28;;;;;;;10.30;9.27;;;;;;;;;;5024093;28;20135;-74
2021/07/28 09:51:54;;;;;;;14.75;9.65;;;;;;;;;;5024393;28;20087;-73
2021/07/28 09:54:21;;;;;;;10.32;9.25;;;;;;;;;;5024644;28;20069;-73
2021/07/28 09:56:58;;;;;;;9.35;8.45;;;;;;;;;;5022616;28;20082;-73
2021/07/28 09:59:24;;;;;;;12.20;9.32;;;;;;;;;;5013718;28;20105;-73
2021/07/28 10:01:55;;;;;;;9.32;8.32;;;;;;;;;;5024048;28;20515;-74
2021/07/28 10:04:21;;;;;;;9.25;7.93;;;;;;;;;;5023927;28;20108;-74
2021/07/28 10:06:49;;;;;;;9.70;8.80;;;;;;;;;;5023784;28;20017;-74
2021/07/28 10:09:18;;;;;;;8.48;7.68;;;;;;;;;;5024176;28;20029;-73
2021/07/28 10:11:45;;;;;;;9.57;8.68;;;;;;;;;;5022682;28;20501;-74
2021/07/28 10:14:12;;;;;;;10.77;8.55;;;;;;;;;;5024020;28;20030;-74
2021/07/28 10:16:38;;;;;;;8.73;7.85;;;;;;;;;;5024222;28;20053;-74
2021/07/28 10:19:05;;;;;;;9.75;7.82;;;;;;;;;;5023643;28;20014;-74
2021/07/28 10:21:33;;;;;;;9.23;8.23;;;;;;;;;;5024116;28;20021;-73
2021/07/28 10:23:59;;;;;;;11.50;8.70;;;;;;;;;;5022469;28;20033;-74
2021/07/28 10:26:26;;;;;;;8.57;7.78;;;;;;;;;;5023958;28;20036;-73
2021/07/28 10:28:54;;;;;;;10.02;7.95;;;;;;;;;;5024206;28;20038;-74
2021/07/28 10:31:21;;;;;;;9.65;7.80;;;;;;;;;;5023557;28;20474;-74
2021/07/28 10:33:51;;;;;;;9.35;8.45;;;;;;;;;;5022471;28;20470;-74
2021/07/28 10:36:21;;;;;;;12.77;8.53;;;;;;;;;;5023346;28;20029;-73
2021/07/28 10:38:55;;;;;;;9.30;8.35;;;;;;;;;;5023892;28;20025;-73
2021/07/28 10:41:36;;;;;;;9.18;8.35;;;;;;;;;;5022492;28;20029;-73
2021/07/28 10:44:18;;;;;;;14.60;9.48;;;;;;;;;;5021121;28;20248;-73
2021/07/28 10:46:54;;;;;;;10.40;9.27;;;;;;;;;;5021694;28;20103;-72
2021/07/28 10:49:29;;;;;;;9.40;8.60;;;;;;;;;;5020782;28;21327;-73
2021/07/28 10:51:55;;;;;;;9.95;8.95;;;;;;;;;;5016578;28;20033;-73
2021/07/28 10:54:40;;;;;;;11.00;9.63;;;;;;;;;;5023104;28;20025;-73
2021/07/28 10:57:09;;;;;;;9.73;8.73;;;;;;;;;;5019440;28;20033;-73
2021/07/28 10:59:39;;;;;;;11.40;10.18;;;;;;;;;;5013092;28;20029;-73
2021/07/28 11:02:05;;;;;;;10.77;9.75;;;;;;;;;;5022183;28;20075;-72
2021/07/28 11:04:31;;;;;;;10.35;9.25;;;;;;;;;;5020820;28;20488;-73
2021/07/28 11:06:57;;;;;;;11.10;10.00;;;;;;;;;;5022220;28;20041;-73
2021/07/28 11:09:25;;;;;;;10.10;8.88;;;;;;;;;;5021111;28;20044;-73
2021/07/28 11:11:51;;;;;;;9.98;9.07;;;;;;;;;;5014723;28;20037;-72
2021/07/28 11:14:18;;;;;;;10.65;9.63;;;;;;;;;;5020462;28;20543;-72
2021/07/28 11:16:51;;;;;;;10.38;9.35;;;;;;;;;;5022075;28;20029;-73
2021/07/28 11:19:19;;;;;;;10.57;9.57;;;;;;;;;;5019721;28;20053;-73
2021/07/28 11:21:46;;;;;;;10.82;9.73;;;;;;;;;;5022365;28;20097;-72
2021/07/28 11:24:12;;;;;;;11.60;9.20;;;;;;;;;;5021948;28;20100;-72
2021/07/28 11:26:41;;;;;;;10.38;9.20;;;;;;;;;;5020797;28;20029;-72
2021/07/28 11:29:09;;;;;;;9.93;9.02;;;;;;;;;;5021643;28;20039;-73
2021/07/28 11:31:40;;;;;;;10.10;9.07;;;;;;;;;;5019981;28;20421;-72
2021/07/28 11:34:23;;;;;;;11.50;9.50;;;;;;;;;;5020973;28;20190;-73
2021/07/28 11:36:56;;;;;;;9.90;9.00;;;;;;;;;;5021963;28;20025;-72
2021/07/28 11:39:23;;;;;;;10.25;9.25;;;;;;;;;;5019947;28;20037;-72
2021/07/28 11:41:50;;;;;;;9.15;8.32;;;;;;;;;;5021688;28;20025;-72
2021/07/28 11:44:16;;;;;;;10.10;8.98;;;;;;;;;;5021866;28;20025;-73
2021/07/28 11:46:52;;;;;;;9.85;8.95;;;;;;;;;;5020212;28;20387;-72
2021/07/28 11:49:19;;;;;;;10.43;9.35;;;;;;;;;;5019514;28;20029;-73
2021/07/28 11:51:45;;;;;;;10.40;8.27;;;;;;;;;;5021509;28;20033;-73
2021/07/28 11:54:12;;;;;;;8.38;7.63;;;;;;;;;;5021624;28;20112;-73
2021/07/28 11:56:39;;;;;;;10.00;7.53;;;;;;;;;;5021297;28;20109;-73
2021/07/28 11:59:05;;;;;;;10.38;7.15;;;;;;;;;;5020509;28;20029;-73
2021/07/28 12:01:32;;;;;;;8.05;7.30;;;;;;;;;;5021305;28;20394;-72
2021/07/28 12:04:05;;;;;;;12.73;8.07;;;;;;;;;;5016616;28;20025;-73
2021/07/28 12:06:38;;;;;;;7.75;7.03;;;;;;;;;;5021149;28;20108;-73
2021/07/28 12:09:23;;;;;;;8.82;7.80;;;;;;;;;;5020246;28;20026;-74
2021/07/28 12:11:51;;;;;;;8.18;7.38;;;;;;;;;;5014122;28;20510;-73
2021/07/28 12:14:24;;;;;;;7.68;6.78;;;;;;;;;;5019868;28;20523;-73
2021/07/28 12:16:50;;;;;;;8.63;6.95;;;;;;;;;;5016674;28;20030;-73
2021/07/28 12:19:24;;;;;;;9.00;7.25;;;;;;;;;;5018724;28;20144;-73
2021/07/28 12:21:57;;;;;;;8.35;7.43;;;;;;;;;;5017809;28;20025;-73
2021/07/28 12:24:52;;;;;;;8.73;7.30;;;;;;;;;;5018000;28;20037;-73
2021/07/28 12:27:24;;;;;;;8.85;7.25;;;;;;;;;;5004478;28;20046;-73
2021/07/28 12:30:00;;;;;;;9.23;8.23;;;;;;;;;;5017073;28;20496;-71
2021/07/28 12:32:39;;;;;;;9.07;8.18;;;;;;;;;;5010029;28;20042;-71
2021/07/28 12:35:27;;;;;;;9.15;8.25;;;;;;;;;;5019974;28;20030;-71
2021/07/28 12:38:09;;;;;;;12.25;9.55;;;;;;;;;;5019851;28;20025;-71
2021/07/28 12:40:36;;;;;;;8.38;7.55;;;;;;;;;;5016524;28;20091;-73
2021/07/28 12:43:06;;;;;;;10.60;9.55;;;;;;;;;;5008458;28;20103;-72
2021/07/28 12:45:33;;;;;;;9.95;8.60;;;;;;;;;;5019208;28;20088;-72
2021/07/28 12:47:59;;;;;;;10.63;9.23;;;;;;;;;;5019345;28;20025;-72
2021/07/28 12:50:25;;;;;;;10.95;8.50;;;;;;;;;;5018185;28;20117;-71
2021/07/28 12:52:51;;;;;;;10.00;8.55;;;;;;;;;;5015821;28;20034;-71
2021/07/28 12:55:18;;;;;;;10.35;9.13;;;;;;;;;;5018354;28;20205;-71
2021/07/28 12:57:44;;;;;;;9.20;8.30;;;;;;;;;;5008089;28;20502;-71
2021/07/28 13:00:10;;;;;;;9.70;8.80;;;;;;;;;;5017287;28;20030;-71
2021/07/28 13:02:37;;;;;;;12.50;9.05;;;;;;;;;;5019892;28;20021;-71
2021/07/28 13:05:04;;;;;;;9.75;8.75;;;;;;;;;;5019426;28;20064;-72
2021/07/28 13:10:02;;;;;;;8.55;7.55;;;;;;;;;;5017784;28;20107;-71
2021/07/28 13:12:28;;;;;;;9.98;8.60;;;;;;;;;;5006704;28;20030;-71
2021/07/28 13:14:54;;;;;;;9.98;7.82;;;;;;;;;;5008527;28;20030;-71
2021/07/28 13:17:20;;;;;;;9.65;8.10;;;;;;;;;;5017794;28;20029;-71
2021/07/28 13:19:46;;;;;;;8.73;7.82;;;;;;;;;;5013486;28;20048;-71
2021/07/28 13:22:12;;;;;;;8.77;7.80;;;;;;;;;;5016734;28;20034;-72
2021/07/28 13:24:39;;;;;;;9.43;7.65;;;;;;;;;;5018285;28;20022;-71
2021/07/28 13:27:05;;;;;;;10.43;7.60;;;;;;;;;;5017433;28;20028;-71
2021/07/28 13:29:31;;;;;;;11.57;8.20;;;;;;;;;;5011085;28;20101;-71
2021/07/28 13:31:57;;;;;;;9.70;8.63;;;;;;;;;;5017035;28;20045;-71
2021/07/28 13:34:23;;;;;;;8.57;7.50;;;;;;;;;;5017204;28;20025;-71
2021/07/28 13:36:49;;;;;;;10.45;7.53;;;;;;;;;;5018040;28;20036;-71
2021/07/28 13:39:16;;;;;;;9.30;8.38;;;;;;;;;;5019230;28;20055;-71
2021/07/28 13:41:42;;;;;;;11.48;8.30;;;;;;;;;;5017787;28;20032;-70
2021/07/28 13:44:08;;;;;;;8.80;7.72;;;;;;;;;;5014787;28;20092;-73
2021/07/28 13:46:34;;;;;;;9.02;7.57;;;;;;;;;;5018356;28;20639;-72
2021/07/28 13:49:00;;;;;;;8.55;7.35;;;;;;;;;;5018963;28;20383;-73
2021/07/28 13:51:27;;;;;;;9.18;7.95;;;;;;;;;;5020829;28;20041;-72
2021/07/28 13:53:54;;;;;;;9.20;8.30;;;;;;;;;;5018444;28;20037;-70
2021/07/28 13:56:20;;;;;;;8.55;7.22;;;;;;;;;;5016441;28;20036;-71
2021/07/28 13:58:46;;;;;;;8.65;7.72;;;;;;;;;;5018243;28;20025;-72
2021/07/28 14:01:12;;;;;;;10.27;7.85;;;;;;;;;;5019872;28;20638;-72
2021/07/28 14:03:39;;;;;;;8.80;8.00;;;;;;;;;;5013121;28;20037;-71
2021/07/28 14:06:06;;;;;;;8.45;7.53;;;;;;;;;;5017455;28;20022;-71
2021/07/28 14:08:32;;;;;;;8.05;7.35;;;;;;;;;;5017179;28;20029;-71
2021/07/28 14:11:01;;;;;;;9.70;7.68;;;;;;;;;;5021603;28;20048;-71
2021/07/28 14:13:28;;;;;;;7.45;6.72;;;;;;;;;;5017064;28;20113;-71
2021/07/28 14:15:54;;;;;;;8.57;7.80;;;;;;;;;;5018828;28;20673;-71
2021/07/28 14:18:21;;;;;;;9.35;8.32;;;;;;;;;;5011686;28;20045;-71
2021/07/28 14:20:47;;;;;;;7.78;7.07;;;;;;;;;;5018346;28;20072;-70
2021/07/28 14:23:13;;;;;;;8.07;7.35;;;;;;;;;;5020650;28;20452;-71
2021/07/28 14:25:39;;;;;;;9.48;8.02;;;;;;;;;;5013811;28;20540;-72
2021/07/28 14:28:06;;;;;;;7.97;7.18;;;;;;;;;;5021987;28;20620;-71
2021/07/28 14:30:33;;;;;;;7.82;7.13;;;;;;;;;;5017189;28;20649;-71
2021/07/28 14:32:59;;;;;;;8.50;7.68;;;;;;;;;;5021290;28;20038;-71
2021/07/28 14:35:25;;;;;;;9.90;7.57;;;;;;;;;;5016282;28;20025;-71
2021/07/28 14:37:51;;;;;;;8.13;7.43;;;;;;;;;;5019962;28;20055;-71
2021/07/28 14:40:17;;;;;;;12.10;8.40;;;;;;;;;;5020825;28;20029;-71
2021/07/28 14:42:43;;;;;;;8.00;7.30;;;;;;;;;;5020297;28;20036;-70